Startpagina
METAR-TAF:

METAR-TAF

Vliegvelden :

Mwanza, Tanzania

breedte: 02-28S, lengte: 032-55E, hoogte: 1139 m

Actueel weer

Dit bericht is 10 uur en het 42 minuten geleden gemaakt, om 16:00 UTC
Wind 2 kt uit variabele richting
Temperatuur 25°C
Vochtigheid 50%
Druk 1019 hPa
Zicht 10 km of meer
Weinig wolken op 2400 ft
Weinig wolken op 2500 ft, Cumulonimbus.

METAR: HTMW 231600Z VRB02KT 9999 FEW024 FEW025CB 25/14 Q1019 NOSIG

Tijdstip: 05:42 (02:42 UTC)

Verwachting

Dit bericht is 3 uur en het 42 minuten geleden gemaakt, om 23:00 UTC
Verwachting geldig van 24 om 00 UTC tot 24 om 24 UTC
Wind 10 kt uit het oostzuidoosten
Zicht 10 km of meer
Weinig wolken op 1700 ft
Weinig wolken op 1800 ft, Cumulonimbus.
Wijzigt naar
van 24 om 12 UTC tot 24 om 14 UTC
Wind 10 kt uit het noordnoordwesten

TAF: HTMW 232300Z 2400/2424 12010KT 9999 FEW017 FEW018CB BECMG 2412/2414 34010KT

Waarnemingen en weersverwachtingen van meer dan 4000 vliegvelden (METAR en TAF).

De beschikbare stations zijn de gele en rode punten op de kaart.

Ga met uw muis naar het station om de naam te zien.

Klik dan om waarnemingen en weersverwachtingen te zien.

kaart wijzigen: klik op de groene knoppen met een zwart kruis om in te zoomen, op de groene knop met een streepje om uit te zoomen of op de groene pijlen voor aangrenzende kaarten.


METAR-TAF: